sensor_id;sensor_type;location;lat;lon;timestamp;pressure;altitude;pressure_sealevel;temperature;humidity
61436;BME280;47304;47.456;19.160;2023-04-29T00:02:11;100181.52;;;12.37;59.30
61436;BME280;47304;47.456;19.160;2023-04-29T00:04:37;100175.42;;;12.32;59.46
61436;BME280;47304;47.456;19.160;2023-04-29T00:07:04;100177.02;;;12.30;59.49
61436;BME280;47304;47.456;19.160;2023-04-29T00:09:31;100174.05;;;12.28;59.65
61436;BME280;47304;47.456;19.160;2023-04-29T00:11:57;100173.73;;;12.26;59.46
61436;BME280;47304;47.456;19.160;2023-04-29T00:14:24;100171.84;;;12.22;59.42
61436;BME280;47304;47.456;19.160;2023-04-29T00:16:50;100168.20;;;12.18;58.93
61436;BME280;47304;47.456;19.160;2023-04-29T00:19:17;100160.63;;;12.18;58.79
61436;BME280;47304;47.456;19.160;2023-04-29T00:21:44;100167.52;;;12.16;58.49
61436;BME280;47304;47.456;19.160;2023-04-29T00:24:10;100168.76;;;12.14;58.06
61436;BME280;47304;47.456;19.160;2023-04-29T00:26:37;100159.83;;;12.11;57.33
61436;BME280;47304;47.456;19.160;2023-04-29T00:29:03;100157.90;;;12.10;56.73
61436;BME280;47304;47.456;19.160;2023-04-29T00:31:30;100150.00;;;12.10;56.22
61436;BME280;47304;47.456;19.160;2023-04-29T00:33:56;100157.04;;;12.09;55.93
61436;BME280;47304;47.456;19.160;2023-04-29T00:36:23;100160.05;;;12.07;54.98
61436;BME280;47304;47.456;19.160;2023-04-29T00:38:49;100156.55;;;12.06;54.94
61436;BME280;47304;47.456;19.160;2023-04-29T00:41:16;100159.00;;;12.06;55.05
61436;BME280;47304;47.456;19.160;2023-04-29T00:43:42;100156.73;;;12.05;54.62
61436;BME280;47304;47.456;19.160;2023-04-29T00:46:09;100158.66;;;12.05;54.47
61436;BME280;47304;47.456;19.160;2023-04-29T00:48:35;100157.96;;;12.05;54.41
61436;BME280;47304;47.456;19.160;2023-04-29T00:51:03;100162.88;;;12.05;54.30
61436;BME280;47304;47.456;19.160;2023-04-29T00:53:31;100162.18;;;12.05;54.03
61436;BME280;47304;47.456;19.160;2023-04-29T00:55:58;100166.73;;;12.06;54.33
61436;BME280;47304;47.456;19.160;2023-04-29T00:58:24;100163.74;;;12.06;54.07
61436;BME280;47304;47.456;19.160;2023-04-29T01:00:51;100155.88;;;12.04;53.59
61436;BME280;47304;47.456;19.160;2023-04-29T01:03:18;100160.09;;;12.03;53.71
61436;BME280;47304;47.456;19.160;2023-04-29T01:05:49;100157.98;;;12.02;53.60
61436;BME280;47304;47.456;19.160;2023-04-29T01:08:40;100156.75;;;12.01;53.48
61436;BME280;47304;47.456;19.160;2023-04-29T01:11:15;100153.98;;;11.99;53.18
61436;BME280;47304;47.456;19.160;2023-04-29T01:13:57;100151.71;;;11.97;52.92
61436;BME280;47304;47.456;19.160;2023-04-29T01:16:42;100155.55;;;11.96;53.27
61436;BME280;47304;47.456;19.160;2023-04-29T01:19:43;100157.16;;;11.94;52.76
61436;BME280;47304;47.456;19.160;2023-04-29T01:22:10;100160.16;;;11.93;52.75
61436;BME280;47304;47.456;19.160;2023-04-29T01:24:36;100159.80;;;11.92;52.78
61436;BME280;47304;47.456;19.160;2023-04-29T01:27:44;100157.72;;;11.90;52.85
61436;BME280;47304;47.456;19.160;2023-04-29T01:33:42;100159.47;;;11.90;53.07
61436;BME280;47304;47.456;19.160;2023-04-29T01:36:34;100154.57;;;11.89;52.77
61436;BME280;47304;47.456;19.160;2023-04-29T01:39:19;100152.47;;;11.89;52.58
61436;BME280;47304;47.456;19.160;2023-04-29T01:44:54;100153.53;;;11.87;52.15
61436;BME280;47304;47.456;19.160;2023-04-29T01:47:21;100152.84;;;11.85;52.93
61436;BME280;47304;47.456;19.160;2023-04-29T01:49:48;100150.58;;;11.84;52.87
61436;BME280;47304;47.456;19.160;2023-04-29T01:52:14;100147.25;;;11.83;52.91
61436;BME280;47304;47.456;19.160;2023-04-29T01:54:41;100148.48;;;11.83;53.08
61436;BME280;47304;47.456;19.160;2023-04-29T01:57:07;100149.39;;;11.79;53.52
61436;BME280;47304;47.456;19.160;2023-04-29T01:59:34;100146.96;;;11.76;53.38
61436;BME280;47304;47.456;19.160;2023-04-29T02:02:01;100146.64;;;11.73;53.64
61436;BME280;47304;47.456;19.160;2023-04-29T02:04:27;100149.30;;;11.70;53.96
61436;BME280;47304;47.456;19.160;2023-04-29T02:06:54;100153.17;;;11.67;54.10
61436;BME280;47304;47.456;19.160;2023-04-29T02:09:20;100155.65;;;11.65;54.16
61436;BME280;47304;47.456;19.160;2023-04-29T02:11:47;100156.71;;;11.63;54.06
61436;BME280;47304;47.456;19.160;2023-04-29T02:14:13;100155.87;;;11.61;54.39
61436;BME280;47304;47.456;19.160;2023-04-29T02:16:43;100152.36;;;11.60;54.35
61436;BME280;47304;47.456;19.160;2023-04-29T02:19:10;100148.52;;;11.57;54.47
61436;BME280;47304;47.456;19.160;2023-04-29T02:21:37;100151.50;;;11.58;54.47
61436;BME280;47304;47.456;19.160;2023-04-29T02:24:03;100153.27;;;11.58;54.60
61436;BME280;47304;47.456;19.160;2023-04-29T02:26:30;100147.84;;;11.54;54.37
61436;BME280;47304;47.456;19.160;2023-04-29T02:28:56;100150.46;;;11.56;54.36
61436;BME280;47304;47.456;19.160;2023-04-29T02:31:23;100155.38;;;11.55;54.74
61436;BME280;47304;47.456;19.160;2023-04-29T02:33:49;100156.27;;;11.53;54.70
61436;BME280;47304;47.456;19.160;2023-04-29T02:36:16;100157.84;;;11.53;54.77
61436;BME280;47304;47.456;19.160;2023-04-29T02:38:43;100157.50;;;11.52;54.66
61436;BME280;47304;47.456;19.160;2023-04-29T02:41:09;100158.05;;;11.51;54.78
61436;BME280;47304;47.456;19.160;2023-04-29T02:43:36;100149.80;;;11.51;54.96
61436;BME280;47304;47.456;19.160;2023-04-29T02:46:02;100147.14;;;11.53;54.89
61436;BME280;47304;47.456;19.160;2023-04-29T02:48:29;100142.77;;;11.53;55.15
61436;BME280;47304;47.456;19.160;2023-04-29T02:50:55;100138.57;;;11.53;55.12
61436;BME280;47304;47.456;19.160;2023-04-29T02:53:21;100139.11;;;11.51;54.85
61436;BME280;47304;47.456;19.160;2023-04-29T02:55:48;100136.83;;;11.50;54.93
61436;BME280;47304;47.456;19.160;2023-04-29T02:58:14;100136.30;;;11.50;54.72
61436;BME280;47304;47.456;19.160;2023-04-29T03:00:41;100134.91;;;11.47;54.63
61436;BME280;47304;47.456;19.160;2023-04-29T03:03:08;100137.21;;;11.46;54.45
61436;BME280;47304;47.456;19.160;2023-04-29T03:05:35;100134.41;;;11.45;54.39
61436;BME280;47304;47.456;19.160;2023-04-29T03:08:02;100136.16;;;11.45;54.29
61436;BME280;47304;47.456;19.160;2023-04-29T03:10:28;100130.40;;;11.42;54.17
61436;BME280;47304;47.456;19.160;2023-04-29T03:12:54;100126.73;;;11.42;54.17
61436;BME280;47304;47.456;19.160;2023-04-29T03:15:21;100129.54;;;11.43;53.98
61436;BME280;47304;47.456;19.160;2023-04-29T03:17:48;100128.64;;;11.43;53.94
61436;BME280;47304;47.456;19.160;2023-04-29T03:20:14;100125.82;;;11.44;54.07
61436;BME280;47304;47.456;19.160;2023-04-29T03:22:41;100121.13;;;11.39;54.02
61436;BME280;47304;47.456;19.160;2023-04-29T03:25:07;100126.02;;;11.43;53.82
61436;BME280;47304;47.456;19.160;2023-04-29T03:27:34;100123.20;;;11.43;54.11
61436;BME280;47304;47.456;19.160;2023-04-29T03:30:01;100125.66;;;11.42;53.94
61436;BME280;47304;47.456;19.160;2023-04-29T03:32:27;100126.90;;;11.41;53.72
61436;BME280;47304;47.456;19.160;2023-04-29T03:34:54;100129.35;;;11.42;53.92
61436;BME280;47304;47.456;19.160;2023-04-29T03:37:20;100134.05;;;11.44;53.95
61436;BME280;47304;47.456;19.160;2023-04-29T03:39:47;100138.44;;;11.45;54.06
61436;BME280;47304;47.456;19.160;2023-04-29T03:42:13;100141.26;;;11.44;54.17
61436;BME280;47304;47.456;19.160;2023-04-29T03:44:40;100142.48;;;11.45;54.33
61436;BME280;47304;47.456;19.160;2023-04-29T03:47:06;100138.63;;;11.44;54.41
61436;BME280;47304;47.456;19.160;2023-04-29T03:49:33;100136.34;;;11.46;54.09
61436;BME280;47304;47.456;19.160;2023-04-29T03:51:59;100138.44;;;11.46;54.17
61436;BME280;47304;47.456;19.160;2023-04-29T03:54:26;100141.95;;;11.47;54.34
61436;BME280;47304;47.456;19.160;2023-04-29T03:56:52;100143.14;;;11.49;54.24
61436;BME280;47304;47.456;19.160;2023-04-29T03:59:21;100149.29;;;11.50;54.27
61436;BME280;47304;47.456;19.160;2023-04-29T04:01:48;100149.10;;;11.52;54.24
61436;BME280;47304;47.456;19.160;2023-04-29T04:04:14;100156.81;;;11.53;54.38
61436;BME280;47304;47.456;19.160;2023-04-29T04:06:41;100152.77;;;11.53;54.36
61436;BME280;47304;47.456;19.160;2023-04-29T04:09:07;100153.29;;;11.53;54.25
61436;BME280;47304;47.456;19.160;2023-04-29T04:11:34;100152.59;;;11.53;54.08
61436;BME280;47304;47.456;19.160;2023-04-29T04:14:00;100158.20;;;11.53;54.24
61436;BME280;47304;47.456;19.160;2023-04-29T04:16:27;100159.08;;;11.53;54.10
61436;BME280;47304;47.456;19.160;2023-04-29T04:18:53;100160.48;;;11.53;54.23
61436;BME280;47304;47.456;19.160;2023-04-29T04:21:20;100163.46;;;11.54;54.47
61436;BME280;47304;47.456;19.160;2023-04-29T04:23:46;100165.56;;;11.55;54.66
61436;BME280;47304;47.456;19.160;2023-04-29T04:26:13;100166.26;;;11.56;54.38
61436;BME280;47304;47.456;19.160;2023-04-29T04:28:39;100171.17;;;11.55;53.96
61436;BME280;47304;47.456;19.160;2023-04-29T04:31:06;100173.46;;;11.54;53.80
61436;BME280;47304;47.456;19.160;2023-04-29T04:33:32;100176.08;;;11.54;54.59
61436;BME280;47304;47.456;19.160;2023-04-29T04:35:59;100172.77;;;11.52;55.61
61436;BME280;47304;47.456;19.160;2023-04-29T04:38:25;100181.39;;;11.50;55.87
61436;BME280;47304;47.456;19.160;2023-04-29T04:40:52;100180.52;;;11.47;56.47
61436;BME280;47304;47.456;19.160;2023-04-29T04:43:18;100180.72;;;11.45;57.01
61436;BME280;47304;47.456;19.160;2023-04-29T04:45:45;100175.10;;;11.45;57.14
61436;BME280;47304;47.456;19.160;2023-04-29T04:48:11;100175.99;;;11.42;56.92
61436;BME280;47304;47.456;19.160;2023-04-29T04:50:38;100170.06;;;11.40;56.93
61436;BME280;47304;47.456;19.160;2023-04-29T04:53:05;100165.15;;;11.39;56.93
61436;BME280;47304;47.456;19.160;2023-04-29T04:55:31;100161.45;;;11.41;57.32
61436;BME280;47304;47.456;19.160;2023-04-29T04:57:58;100160.58;;;11.41;57.61
61436;BME280;47304;47.456;19.160;2023-04-29T05:00:24;100165.14;;;11.42;57.52
61436;BME280;47304;47.456;19.160;2023-04-29T05:02:51;100167.43;;;11.40;57.49
61436;BME280;47304;47.456;19.160;2023-04-29T05:05:18;100166.20;;;11.42;57.54
61436;BME280;47304;47.456;19.160;2023-04-29T05:07:44;100169.87;;;11.41;57.54
61436;BME280;47304;47.456;19.160;2023-04-29T05:10:10;100164.79;;;11.39;57.40
61436;BME280;47304;47.456;19.160;2023-04-29T05:12:37;100161.13;;;11.38;57.62
61436;BME280;47304;47.456;19.160;2023-04-29T05:15:04;100153.04;;;11.40;57.91
61436;BME280;47304;47.456;19.160;2023-04-29T05:17:30;100147.42;;;11.42;57.82
61436;BME280;47304;47.456;19.160;2023-04-29T05:19:57;100151.80;;;11.44;57.56
61436;BME280;47304;47.456;19.160;2023-04-29T05:22:23;100154.02;;;11.49;57.36
61436;BME280;47304;47.456;19.160;2023-04-29T05:24:50;100159.05;;;11.58;57.65
61436;BME280;47304;47.456;19.160;2023-04-29T05:27:16;100156.20;;;11.64;57.35
61436;BME280;47304;47.456;19.160;2023-04-29T05:29:43;100157.55;;;11.66;56.65
61436;BME280;47304;47.456;19.160;2023-04-29T05:32:09;100156.15;;;11.67;56.55
61436;BME280;47304;47.456;19.160;2023-04-29T05:34:36;100161.94;;;11.68;56.32
61436;BME280;47304;47.456;19.160;2023-04-29T05:37:02;100169.45;;;11.72;56.69
61436;BME280;47304;47.456;19.160;2023-04-29T05:39:29;100169.98;;;11.73;56.56
61436;BME280;47304;47.456;19.160;2023-04-29T05:41:55;100171.23;;;11.72;55.69
61436;BME280;47304;47.456;19.160;2023-04-29T05:44:22;100166.82;;;11.72;55.66
61436;BME280;47304;47.456;19.160;2023-04-29T05:46:48;100166.46;;;11.73;55.53
61436;BME280;47304;47.456;19.160;2023-04-29T05:49:15;100166.83;;;11.72;55.11
61436;BME280;47304;47.456;19.160;2023-04-29T05:51:41;100171.92;;;11.71;55.18
61436;BME280;47304;47.456;19.160;2023-04-29T05:54:08;100175.25;;;11.72;54.99
61436;BME280;47304;47.456;19.160;2023-04-29T05:56:34;100178.23;;;11.72;54.99
61436;BME280;47304;47.456;19.160;2023-04-29T05:59:01;100176.64;;;11.73;55.18
61436;BME280;47304;47.456;19.160;2023-04-29T06:01:27;100177.89;;;11.70;54.87
61436;BME280;47304;47.456;19.160;2023-04-29T06:03:54;100179.44;;;11.75;55.07
61436;BME280;47304;47.456;19.160;2023-04-29T06:06:21;100177.16;;;11.75;54.69
61436;BME280;47304;47.456;19.160;2023-04-29T06:08:47;100175.77;;;11.73;54.35
61436;BME280;47304;47.456;19.160;2023-04-29T06:11:14;100173.84;;;11.73;54.31
61436;BME280;47304;47.456;19.160;2023-04-29T06:13:40;100175.92;;;11.75;54.79
61436;BME280;47304;47.456;19.160;2023-04-29T06:16:07;100176.62;;;11.76;55.12
61436;BME280;47304;47.456;19.160;2023-04-29T06:18:33;100177.63;;;11.80;54.87
61436;BME280;47304;47.456;19.160;2023-04-29T06:21:00;100180.07;;;11.83;54.92
61436;BME280;47304;47.456;19.160;2023-04-29T06:23:26;100181.82;;;11.84;54.17
61436;BME280;47304;47.456;19.160;2023-04-29T06:25:53;100180.73;;;11.85;54.20
61436;BME280;47304;47.456;19.160;2023-04-29T06:28:19;100181.77;;;11.89;54.30
61436;BME280;47304;47.456;19.160;2023-04-29T06:30:46;100182.08;;;11.94;53.68
61436;BME280;47304;47.456;19.160;2023-04-29T06:33:13;100187.68;;;11.97;53.46
61436;BME280;47304;47.456;19.160;2023-04-29T06:35:39;100188.57;;;11.98;53.02
61436;BME280;47304;47.456;19.160;2023-04-29T06:38:06;100196.09;;;12.01;52.64
61436;BME280;47304;47.456;19.160;2023-04-29T06:40:33;100194.14;;;12.02;52.63
61436;BME280;47304;47.456;19.160;2023-04-29T06:43:00;100195.36;;;12.05;52.87
61436;BME280;47304;47.456;19.160;2023-04-29T06:45:26;100191.48;;;12.08;52.49
61436;BME280;47304;47.456;19.160;2023-04-29T06:47:53;100185.80;;;12.12;52.87
61436;BME280;47304;47.456;19.160;2023-04-29T06:50:19;100181.56;;;12.16;52.96
61436;BME280;47304;47.456;19.160;2023-04-29T06:52:46;100182.17;;;12.24;53.02
61436;BME280;47304;47.456;19.160;2023-04-29T06:55:12;100173.52;;;12.30;52.89
61436;BME280;47304;47.456;19.160;2023-04-29T06:57:39;100173.63;;;12.36;52.67
61436;BME280;47304;47.456;19.160;2023-04-29T07:00:06;100176.03;;;12.40;52.60
61436;BME280;47304;47.456;19.160;2023-04-29T07:02:33;100176.17;;;12.43;52.76
61436;BME280;47304;47.456;19.160;2023-04-29T07:04:59;100182.27;;;12.49;53.01
61436;BME280;47304;47.456;19.160;2023-04-29T07:07:26;100187.14;;;12.52;52.17
61436;BME280;47304;47.456;19.160;2023-04-29T07:09:52;100186.39;;;12.57;52.51
61436;BME280;47304;47.456;19.160;2023-04-29T07:12:19;100188.08;;;12.63;52.53
61436;BME280;47304;47.456;19.160;2023-04-29T07:14:46;100186.44;;;12.68;52.74
61436;BME280;47304;47.456;19.160;2023-04-29T07:17:12;100187.10;;;12.71;52.91
61436;BME280;47304;47.456;19.160;2023-04-29T07:19:39;100187.06;;;12.75;52.80
61436;BME280;47304;47.456;19.160;2023-04-29T07:22:06;100186.13;;;12.79;53.05
61436;BME280;47304;47.456;19.160;2023-04-29T07:24:32;100181.71;;;12.81;52.47
61436;BME280;47304;47.456;19.160;2023-04-29T07:26:59;100179.36;;;12.86;52.18
61436;BME280;47304;47.456;19.160;2023-04-29T07:29:25;100177.89;;;12.91;51.80
61436;BME280;47304;47.456;19.160;2023-04-29T07:31:52;100181.54;;;12.94;51.99
61436;BME280;47304;47.456;19.160;2023-04-29T07:34:18;100183.44;;;12.97;51.75
61436;BME280;47304;47.456;19.160;2023-04-29T07:36:45;100184.41;;;13.03;51.59
61436;BME280;47304;47.456;19.160;2023-04-29T07:39:11;100185.57;;;13.08;51.83
61436;BME280;47304;47.456;19.160;2023-04-29T07:41:38;100189.17;;;13.15;51.37
61436;BME280;47304;47.456;19.160;2023-04-29T07:44:05;100192.42;;;13.21;51.87
61436;BME280;47304;47.456;19.160;2023-04-29T07:46:31;100190.06;;;13.28;52.31
61436;BME280;47304;47.456;19.160;2023-04-29T07:48:58;100189.94;;;13.35;51.67
61436;BME280;47304;47.456;19.160;2023-04-29T07:51:24;100182.83;;;13.43;51.80
61436;BME280;47304;47.456;19.160;2023-04-29T07:53:51;100182.85;;;13.53;51.23
61436;BME280;47304;47.456;19.160;2023-04-29T07:56:17;100177.72;;;13.54;50.46
61436;BME280;47304;47.456;19.160;2023-04-29T07:58:44;100182.67;;;13.63;50.59
61436;BME280;47304;47.456;19.160;2023-04-29T08:01:10;100182.88;;;13.74;50.46
61436;BME280;47304;47.456;19.160;2023-04-29T08:03:37;100185.68;;;13.84;50.19
61436;BME280;47304;47.456;19.160;2023-04-29T08:06:07;100189.50;;;13.88;49.82
61436;BME280;47304;47.456;19.160;2023-04-29T08:08:34;100192.24;;;13.92;49.86
61436;BME280;47304;47.456;19.160;2023-04-29T08:11:00;100194.11;;;13.96;49.19
61436;BME280;47304;47.456;19.160;2023-04-29T08:13:27;100200.02;;;14.00;49.16
61436;BME280;47304;47.456;19.160;2023-04-29T08:15:54;100201.18;;;14.05;49.41
61436;BME280;47304;47.456;19.160;2023-04-29T08:18:20;100202.50;;;14.10;49.66
61436;BME280;47304;47.456;19.160;2023-04-29T08:20:47;100205.35;;;14.17;48.72
61436;BME280;47304;47.456;19.160;2023-04-29T08:23:14;100199.30;;;14.22;48.10
61436;BME280;47304;47.456;19.160;2023-04-29T08:25:42;100199.36;;;14.28;48.55
61436;BME280;47304;47.456;19.160;2023-04-29T08:28:09;100197.48;;;14.34;48.47
61436;BME280;47304;47.456;19.160;2023-04-29T08:30:37;100194.59;;;14.39;48.45
61436;BME280;47304;47.456;19.160;2023-04-29T08:33:04;100193.92;;;14.45;47.82
61436;BME280;47304;47.456;19.160;2023-04-29T08:35:30;100191.51;;;14.52;47.88
61436;BME280;47304;47.456;19.160;2023-04-29T08:37:57;100196.48;;;14.60;48.12
61436;BME280;47304;47.456;19.160;2023-04-29T08:40:23;100197.80;;;14.64;47.44
61436;BME280;47304;47.456;19.160;2023-04-29T08:42:50;100197.05;;;14.69;46.81
61436;BME280;47304;47.456;19.160;2023-04-29T08:45:18;100197.94;;;14.76;46.93
61436;BME280;47304;47.456;19.160;2023-04-29T08:47:45;100192.16;;;14.83;46.91
61436;BME280;47304;47.456;19.160;2023-04-29T08:50:12;100195.46;;;14.93;46.82
61436;BME280;47304;47.456;19.160;2023-04-29T08:52:39;100193.92;;;15.00;46.28
61436;BME280;47304;47.456;19.160;2023-04-29T08:55:06;100193.98;;;15.05;45.67
61436;BME280;47304;47.456;19.160;2023-04-29T08:57:35;100196.41;;;15.15;45.33
61436;BME280;47304;47.456;19.160;2023-04-29T09:00:02;100192.45;;;15.26;44.68
61436;BME280;47304;47.456;19.160;2023-04-29T09:02:28;100196.77;;;15.38;44.74
61436;BME280;47304;47.456;19.160;2023-04-29T09:05:06;100194.44;;;15.48;44.39
61436;BME280;47304;47.456;19.160;2023-04-29T09:07:34;100201.84;;;15.63;44.35
61436;BME280;47304;47.456;19.160;2023-04-29T09:10:03;100200.20;;;15.80;44.23
61436;BME280;47304;47.456;19.160;2023-04-29T09:12:30;100201.81;;;15.94;43.68
61436;BME280;47304;47.456;19.160;2023-04-29T09:14:57;100204.11;;;16.09;43.24
61436;BME280;47304;47.456;19.160;2023-04-29T09:17:39;100201.11;;;16.22;43.25
61436;BME280;47304;47.456;19.160;2023-04-29T09:25:14;100199.38;;;16.47;41.86
61436;BME280;47304;47.456;19.160;2023-04-29T09:27:40;100200.69;;;16.51;41.79
61436;BME280;47304;47.456;19.160;2023-04-29T09:30:07;100203.95;;;16.54;41.77
61436;BME280;47304;47.456;19.160;2023-04-29T09:32:34;100205.84;;;16.56;41.65
61436;BME280;47304;47.456;19.160;2023-04-29T09:35:23;100205.89;;;16.61;41.60
61436;BME280;47304;47.456;19.160;2023-04-29T09:37:54;100202.20;;;16.66;42.67
61436;BME280;47304;47.456;19.160;2023-04-29T09:40:33;100205.98;;;16.71;41.83
61436;BME280;47304;47.456;19.160;2023-04-29T09:43:16;100201.48;;;16.73;41.40
61436;BME280;47304;47.456;19.160;2023-04-29T09:45:44;100198.83;;;16.79;41.65
61436;BME280;47304;47.456;19.160;2023-04-29T09:48:12;100193.62;;;16.88;40.82
61436;BME280;47304;47.456;19.160;2023-04-29T09:50:40;100192.49;;;16.98;40.78
61436;BME280;47304;47.456;19.160;2023-04-29T09:53:08;100192.63;;;17.11;39.85
61436;BME280;47304;47.456;19.160;2023-04-29T09:58:02;100186.95;;;17.28;39.90
61436;BME280;47304;47.456;19.160;2023-04-29T10:00:31;100187.42;;;17.37;39.49
61436;BME280;47304;47.456;19.160;2023-04-29T10:02:59;100185.70;;;17.51;38.85
61436;BME280;47304;47.456;19.160;2023-04-29T10:05:28;100179.01;;;17.72;38.88
61436;BME280;47304;47.456;19.160;2023-04-29T10:07:55;100181.77;;;17.91;38.58
61436;BME280;47304;47.456;19.160;2023-04-29T10:10:23;100181.02;;;18.08;37.52
61436;BME280;47304;47.456;19.160;2023-04-29T10:12:52;100182.41;;;18.19;36.95
61436;BME280;47304;47.456;19.160;2023-04-29T10:15:28;100178.63;;;18.31;36.87
61436;BME280;47304;47.456;19.160;2023-04-29T10:18:19;100173.81;;;18.47;36.83
61436;BME280;47304;47.456;19.160;2023-04-29T10:20:47;100170.89;;;18.64;37.15
61436;BME280;47304;47.456;19.160;2023-04-29T10:23:18;100170.95;;;18.72;36.64
61436;BME280;47304;47.456;19.160;2023-04-29T10:25:47;100172.11;;;18.79;36.71
61436;BME280;47304;47.456;19.160;2023-04-29T10:28:17;100170.71;;;18.98;36.78
61436;BME280;47304;47.456;19.160;2023-04-29T10:30:44;100164.30;;;19.17;35.55
61436;BME280;47304;47.456;19.160;2023-04-29T10:33:16;100168.17;;;19.22;35.95
61436;BME280;47304;47.456;19.160;2023-04-29T10:35:43;100170.00;;;19.26;36.16
61436;BME280;47304;47.456;19.160;2023-04-29T10:38:20;100166.11;;;19.34;35.38
61436;BME280;47304;47.456;19.160;2023-04-29T10:40:49;100163.52;;;19.37;35.03
61436;BME280;47304;47.456;19.160;2023-04-29T10:43:22;100159.75;;;19.38;36.03
61436;BME280;47304;47.456;19.160;2023-04-29T10:45:49;100158.61;;;19.40;35.86
61436;BME280;47304;47.456;19.160;2023-04-29T10:48:15;100156.19;;;19.47;35.65
61436;BME280;47304;47.456;19.160;2023-04-29T10:53:19;100138.39;;;19.87;35.21
61436;BME280;47304;47.456;19.160;2023-04-29T10:55:52;100131.30;;;20.16;34.95
61436;BME280;47304;47.456;19.160;2023-04-29T10:58:39;100128.86;;;20.70;34.74
61436;BME280;47304;47.456;19.160;2023-04-29T11:01:09;100128.77;;;21.50;33.75
61436;BME280;47304;47.456;19.160;2023-04-29T11:04:01;100121.34;;;23.21;32.06
61436;BME280;47304;47.456;19.160;2023-04-29T11:09:08;100118.18;;;25.85;29.23
61436;BME280;47304;47.456;19.160;2023-04-29T11:12:07;100116.27;;;25.65;28.40
61436;BME280;47304;47.456;19.160;2023-04-29T11:14:42;100113.65;;;25.29;28.13
61436;BME280;47304;47.456;19.160;2023-04-29T11:17:16;100103.52;;;25.00;28.80
61436;BME280;47304;47.456;19.160;2023-04-29T11:19:45;100093.33;;;24.83;28.74
61436;BME280;47304;47.456;19.160;2023-04-29T11:24:49;100089.21;;;24.74;28.36
61436;BME280;47304;47.456;19.160;2023-04-29T11:27:17;100085.52;;;24.53;28.57
61436;BME280;47304;47.456;19.160;2023-04-29T11:29:45;100088.44;;;24.41;28.35
61436;BME280;47304;47.456;19.160;2023-04-29T11:32:12;100088.80;;;24.26;28.62
61436;BME280;47304;47.456;19.160;2023-04-29T11:34:39;100085.48;;;23.98;28.67
61436;BME280;47304;47.456;19.160;2023-04-29T11:37:05;100082.95;;;23.65;29.09
61436;BME280;47304;47.456;19.160;2023-04-29T11:39:35;100085.08;;;23.38;30.03
61436;BME280;47304;47.456;19.160;2023-04-29T11:42:05;100082.14;;;23.14;30.27
61436;BME280;47304;47.456;19.160;2023-04-29T11:44:35;100085.13;;;22.99;30.30
61436;BME280;47304;47.456;19.160;2023-04-29T11:47:06;100082.38;;;22.78;30.97
61436;BME280;47304;47.456;19.160;2023-04-29T11:49:33;100081.88;;;22.55;31.34
61436;BME280;47304;47.456;19.160;2023-04-29T11:52:00;100079.19;;;22.42;31.70
61436;BME280;47304;47.456;19.160;2023-04-29T11:54:28;100081.68;;;22.42;31.80
61436;BME280;47304;47.456;19.160;2023-04-29T11:56:56;100085.23;;;22.46;31.91
61436;BME280;47304;47.456;19.160;2023-04-29T11:59:23;100085.80;;;22.48;31.66
61436;BME280;47304;47.456;19.160;2023-04-29T12:01:50;100090.72;;;22.43;31.90
61436;BME280;47304;47.456;19.160;2023-04-29T12:04:17;100091.69;;;22.31;32.03
61436;BME280;47304;47.456;19.160;2023-04-29T12:06:45;100087.62;;;22.24;32.13
61436;BME280;47304;47.456;19.160;2023-04-29T12:09:15;100083.94;;;22.16;31.74
61436;BME280;47304;47.456;19.160;2023-04-29T12:11:43;100082.36;;;22.19;31.68
61436;BME280;47304;47.456;19.160;2023-04-29T12:14:10;100082.02;;;22.29;32.07
61436;BME280;47304;47.456;19.160;2023-04-29T12:16:37;100075.34;;;22.36;32.20
61436;BME280;47304;47.456;19.160;2023-04-29T12:19:04;100072.73;;;22.38;32.40
61436;BME280;47304;47.456;19.160;2023-04-29T12:21:32;100073.20;;;22.33;32.22
61436;BME280;47304;47.456;19.160;2023-04-29T12:24:01;100073.81;;;22.18;31.62
61436;BME280;47304;47.456;19.160;2023-04-29T12:26:29;100073.83;;;22.01;32.01
61436;BME280;47304;47.456;19.160;2023-04-29T12:28:57;100070.07;;;21.95;32.87
61436;BME280;47304;47.456;19.160;2023-04-29T12:31:31;100070.63;;;21.84;31.45
61436;BME280;47304;47.456;19.160;2023-04-29T12:33:58;100068.91;;;21.61;31.84
61436;BME280;47304;47.456;19.160;2023-04-29T12:36:30;100065.80;;;21.52;32.67
61436;BME280;47304;47.456;19.160;2023-04-29T12:38:58;100058.35;;;21.59;33.56
61436;BME280;47304;47.456;19.160;2023-04-29T12:41:41;100052.11;;;21.66;33.75
61436;BME280;47304;47.456;19.160;2023-04-29T12:44:07;100055.98;;;21.81;33.18
61436;BME280;47304;47.456;19.160;2023-04-29T12:46:38;100055.80;;;21.85;33.18
61436;BME280;47304;47.456;19.160;2023-04-29T12:49:06;100053.38;;;21.80;33.01
61436;BME280;47304;47.456;19.160;2023-04-29T12:51:34;100048.17;;;21.77;33.23
61436;BME280;47304;47.456;19.160;2023-04-29T12:54:02;100044.48;;;21.79;32.70
61436;BME280;47304;47.456;19.160;2023-04-29T12:56:29;100037.71;;;21.76;32.00
61436;BME280;47304;47.456;19.160;2023-04-29T12:59:03;100034.46;;;21.63;32.25
61436;BME280;47304;47.456;19.160;2023-04-29T13:01:30;100035.86;;;21.60;33.04
61436;BME280;47304;47.456;19.160;2023-04-29T13:03:56;100027.46;;;21.71;33.50
61436;BME280;47304;47.456;19.160;2023-04-29T13:06:24;100024.92;;;21.85;32.58
61436;BME280;47304;47.456;19.160;2023-04-29T13:08:50;100025.13;;;21.88;33.53